createdAt,value
2023-09-29T00:02:56.274Z,98177.72
2023-09-29T00:13:00.686Z,98200.25
2023-09-29T00:23:04.042Z,98196.50
2023-09-29T00:33:08.493Z,98196.25
2023-09-29T00:43:12.552Z,98179.06
2023-09-29T00:53:19.124Z,98172.91
2023-09-29T01:03:22.260Z,98180.94
2023-09-29T01:13:26.479Z,98172.91
2023-09-29T01:23:32.785Z,98161.09
2023-09-29T01:33:35.929Z,98170.22
2023-09-29T01:43:40.731Z,98176.41
2023-09-29T01:53:43.943Z,98176.66
2023-09-29T02:03:49.488Z,98173.69
2023-09-29T02:13:52.457Z,98167.81
2023-09-29T02:23:56.626Z,98156.78
2023-09-29T02:33:59.883Z,98155.19
2023-09-29T02:44:04.116Z,98153.03
2023-09-29T02:54:07.881Z,98155.75
2023-09-29T03:04:12.872Z,98150.63
2023-09-29T03:14:17.292Z,98138.28
2023-09-29T03:24:21.460Z,98146.34
2023-09-29T03:34:24.863Z,98145.28
2023-09-29T03:44:29.074Z,98142.56
2023-09-29T03:54:31.796Z,98140.72
2023-09-29T04:04:36.071Z,98131.31
2023-09-29T04:14:38.874Z,98139.09
2023-09-29T04:24:43.595Z,98125.41
2023-09-29T04:34:46.481Z,98125.66
2023-09-29T04:44:50.648Z,98120.59
2023-09-29T04:54:53.431Z,98113.34
2023-09-29T05:04:57.522Z,98123.00
2023-09-29T05:15:00.407Z,98123.00
2023-09-29T05:25:05.456Z,98117.38
2023-09-29T05:35:09.770Z,98117.38
2023-09-29T05:45:14.224Z,98097.28
2023-09-29T05:55:17.095Z,98117.38
2023-09-29T06:05:21.969Z,98127.28
2023-09-29T06:15:25.356Z,98111.44
2023-09-29T06:25:29.498Z,98133.72
2023-09-29T06:35:32.626Z,98099.13
2023-09-29T06:45:57.098Z,98087.31
2023-09-29T06:56:00.271Z,98100.44
2023-09-29T07:06:04.585Z,98101.66
2023-09-29T07:16:07.426Z,98104.66
2023-09-29T07:26:11.565Z,98111.75
2023-09-29T07:36:14.394Z,98105.41
2023-09-29T07:46:18.593Z,98105.06
2023-09-29T07:56:21.411Z,98128.25
2023-09-29T08:06:26.669Z,98126.03
2023-09-29T08:16:29.564Z,98120.41
2023-09-29T08:26:33.852Z,98112.31
2023-09-29T08:36:36.611Z,98129.28
2023-09-29T08:46:42.117Z,98118.72
2023-09-29T08:56:46.064Z,98128.91
2023-09-29T09:06:50.472Z,98134.78
2023-09-29T09:16:53.251Z,98121.84
2023-09-29T09:27:03.683Z,98112.72
2023-09-29T09:37:07.781Z,98119.69
2023-09-29T09:47:15.490Z,98143.06
2023-09-29T09:57:21.397Z,98153.69
2023-09-29T10:07:26.692Z,98150.22
2023-09-29T10:17:40.712Z,98142.66
2023-09-29T10:27:50.559Z,98132.44
2023-09-29T10:37:56.753Z,98135.59
2023-09-29T10:48:04.459Z,98127.28
2023-09-29T10:58:07.879Z,98109.81
2023-09-29T11:08:14.199Z,98115.84
2023-09-29T11:18:30.574Z,98133.75
2023-09-29T11:28:34.828Z,98139.59
2023-09-29T11:38:37.839Z,98168.78
2023-09-29T11:48:43.437Z,98185.72
2023-09-29T11:58:46.341Z,98211.41
2023-09-29T12:08:50.742Z,98213.69
2023-09-29T12:18:53.687Z,98218.06
2023-09-29T12:28:57.930Z,98227.97
2023-09-29T12:39:02.510Z,98226.56
2023-09-29T12:49:07.350Z,98224.81
2023-09-29T12:59:12.211Z,98238.03
2023-09-29T13:09:17.094Z,98246.69
2023-09-29T13:19:22.936Z,98248.44
2023-09-29T13:29:28.992Z,98264.72
2023-09-29T13:39:31.746Z,98268.22
2023-09-29T13:49:35.983Z,98259.31
2023-09-29T13:59:38.863Z,98260.53
2023-09-29T14:09:43.220Z,98259.53
2023-09-29T14:19:46.539Z,98263.22
2023-09-29T14:29:51.331Z,98255.53
2023-09-29T14:39:55.523Z,98257.38
2023-09-29T14:50:00.718Z,98265.06
2023-09-29T15:00:06.001Z,98277.31
2023-09-29T15:10:11.134Z,98277.66
2023-09-29T15:20:16.214Z,98286.13
2023-09-29T15:30:20.500Z,98294.53
2023-09-29T15:40:23.334Z,98305.00
2023-09-29T15:50:27.432Z,98305.34
2023-09-29T16:00:30.724Z,98305.19
2023-09-29T16:10:36.356Z,98308.56
2023-09-29T16:20:39.213Z,98321.13
2023-09-29T16:30:44.004Z,98321.09
2023-09-29T16:40:51.726Z,98338.09
2023-09-29T16:50:55.947Z,98349.81
2023-09-29T17:00:59.465Z,98373.84
2023-09-29T17:11:12.806Z,98375.00
2023-09-29T17:21:17.030Z,98393.31
2023-09-29T17:31:21.316Z,98385.56
2023-09-29T17:41:24.517Z,98405.28
2023-09-29T17:51:28.614Z,98408.28
2023-09-29T18:01:31.943Z,98421.53
2023-09-29T18:11:36.279Z,98454.09
2023-09-29T18:21:39.082Z,98474.22
2023-09-29T18:31:43.652Z,98506.59
2023-09-29T18:41:46.416Z,98549.81
2023-09-29T18:51:50.559Z,98574.59
2023-09-29T19:01:53.369Z,98603.53
2023-09-29T19:12:02.894Z,98606.81
2023-09-29T19:22:05.732Z,98622.06
2023-09-29T19:32:09.893Z,98631.19
2023-09-29T19:42:12.667Z,98656.72
2023-09-29T19:52:17.038Z,98662.06
2023-09-29T20:02:19.864Z,98663.38
2023-09-29T20:12:24.047Z,98684.56
2023-09-29T20:22:26.867Z,98706.72
2023-09-29T20:32:31.114Z,98725.75
2023-09-29T20:42:33.927Z,98757.66
2023-09-29T20:52:38.634Z,98760.91
2023-09-29T21:02:42.562Z,98772.41
2023-09-29T21:12:47.214Z,98781.22
2023-09-29T21:22:53.969Z,98783.91
2023-09-29T21:32:58.655Z,98781.03
2023-09-29T21:43:01.596Z,98773.72
2023-09-29T21:53:05.809Z,98778.94
2023-09-29T22:03:09.547Z,98782.06
2023-09-29T22:13:13.916Z,98802.31
2023-09-29T22:23:18.189Z,98813.72
2023-09-29T22:33:22.547Z,98809.91
2023-09-29T22:43:25.324Z,98827.34
2023-09-29T22:53:29.515Z,98839.53
2023-09-29T23:03:32.412Z,98835.13
2023-09-29T23:13:38.570Z,98820.63
2023-09-29T23:23:42.050Z,98816.06
2023-09-29T23:33:46.175Z,98828.00
2023-09-29T23:43:49.310Z,98836.47
2023-09-29T23:53:53.328Z,98860.84
